Time;durP1;ratioP1;P1;durP2;ratioP2;P2;SDS_P1;SDS_P2;PMS_P1;PMS_P2;Temp;Humidity;BMP_temperature;BMP_pressure;BME280_temperature;BME280_humidity;BME280_pressure;Samples;Min_cycle;Max_cycle;Signal;HPM_P1;HPM_P2
2022/01/11 00:01:21;;;;;;;;;49.75;39.25;;;;;6.91;67.00;102817.56;6241074;22;46277;-82
2022/01/11 00:03:47;;;;;;;;;51.50;42.00;;;;;6.91;66.96;102816.66;6241856;22;45703;-82
2022/01/11 00:08:45;;;;;;;;;48.25;37.25;;;;;6.91;66.98;102817.56;6241612;22;45556;-82
2022/01/11 00:11:10;;;;;;;;;42.00;35.00;;;;;6.92;66.61;102815.78;6241450;22;46267;-82
2022/01/11 00:13:38;;;;;;;;;37.00;27.75;;;;;6.90;66.48;102810.56;6241786;22;45233;-82
2022/01/11 00:16:06;;;;;;;;;28.50;24.50;;;;;6.90;66.57;102807.94;6241500;22;45228;-82
2022/01/11 00:18:32;;;;;;;;;23.25;19.75;;;;;6.92;66.22;102819.31;6241451;22;45296;-82
2022/01/11 00:20:58;;;;;;;;;26.50;23.25;;;;;6.87;66.44;102818.34;6241318;22;45283;-82
2022/01/11 00:25:51;;;;;;;;;29.75;18.75;;;;;6.88;66.96;102817.50;6241339;22;45199;-82
2022/01/11 00:28:18;;;;;;;;;24.25;22.50;;;;;6.89;66.88;102813.16;6241093;22;45463;-82
2022/01/11 00:30:46;;;;;;;;;24.75;21.00;;;;;6.89;66.55;102811.41;6240805;22;45352;-82
2022/01/11 00:33:16;;;;;;;;;25.50;23.00;;;;;6.92;66.75;102818.41;6241503;22;45288;-82
2022/01/11 00:35:46;;;;;;;;;29.00;24.25;;;;;6.92;66.95;102807.97;6241693;22;45203;-81
2022/01/11 00:38:17;;;;;;;;;30.00;25.00;;;;;6.93;66.49;102818.47;6241005;22;45442;-81
2022/01/11 00:40:52;;;;;;;;;39.00;25.75;;;;;6.91;66.36;102820.19;6241406;22;45206;-81
2022/01/11 00:43:19;;;;;;;;;25.75;23.00;;;;;6.90;66.27;102818.41;6240943;22;45856;-83
2022/01/11 00:45:45;;;;;;;;;25.00;20.75;;;;;6.90;66.67;102813.16;6241415;22;45387;-83
2022/01/11 00:48:11;;;;;;;;;25.25;21.25;;;;;6.89;66.01;102814.00;6241298;22;45403;-83
2022/01/11 00:50:37;;;;;;;;;23.25;21.00;;;;;6.89;66.17;102810.53;6241321;22;45240;-83
2022/01/11 00:53:04;;;;;;;;;24.75;21.25;;;;;6.88;66.38;102817.50;6241628;22;45163;-81
2022/01/11 00:55:30;;;;;;;;;26.50;21.25;;;;;6.87;66.73;102826.19;6214464;22;45184;-82
2022/01/11 00:57:55;;;;;;;;;23.50;21.50;;;;;6.88;66.86;102821.84;6240918;22;45177;-84
2022/01/11 01:00:21;;;;;;;;;30.25;21.25;;;;;6.86;66.44;102821.81;6241121;22;45208;-84
2022/01/11 01:02:46;;;;;;;;;33.00;24.25;;;;;6.85;66.79;102818.31;6241200;22;45245;-84
2022/01/11 01:05:11;;;;;;;;;30.00;22.00;;;;;6.85;66.63;102818.31;6241566;22;45473;-84
2022/01/11 01:07:37;;;;;;;;;27.00;22.25;;;;;6.82;66.56;102822.63;6241101;22;45080;-84
2022/01/11 01:10:15;;;;;;;;;31.25;23.50;;;;;6.82;66.92;102822.63;6242607;22;45190;-83
2022/01/11 01:12:40;;;;;;;;;30.25;26.00;;;;;6.82;66.93;102817.38;6243199;22;45830;-84
2022/01/11 01:15:06;;;;;;;;;32.00;25.50;;;;;6.82;66.82;102827.84;6243213;22;45404;-84
2022/01/11 01:17:31;;;;;;;;;30.00;22.50;;;;;6.81;66.64;102836.56;6243214;22;45298;-85
2022/01/11 01:19:57;;;;;;;;;30.25;25.00;;;;;6.81;66.58;102833.94;6243057;22;45343;-84
2022/01/11 01:22:22;;;;;;;;;24.75;22.25;;;;;6.84;66.90;102844.47;6243058;22;45303;-84
2022/01/11 01:24:48;;;;;;;;;26.75;21.25;;;;;6.82;66.63;102833.06;6243530;22;45348;-83
2022/01/11 01:27:14;;;;;;;;;26.75;24.75;;;;;6.83;66.26;102840.97;6242436;22;45226;-80
2022/01/11 01:29:40;;;;;;;;;30.75;26.50;;;;;6.80;66.79;102830.44;6242216;22;46519;-80
2022/01/11 01:32:07;;;;;;;;;38.75;25.50;;;;;6.82;66.34;102839.19;6215800;22;45220;-81
2022/01/11 01:34:33;;;;;;;;;34.00;30.25;;;;;6.84;66.36;102841.84;6243000;22;45135;-80
2022/01/11 01:36:59;;;;;;;;;40.50;29.25;;;;;6.84;66.64;102847.94;6242837;22;45234;-82
2022/01/11 01:39:25;;;;;;;;;35.50;28.00;;;;;6.83;66.48;102846.19;6242768;22;45366;-82
2022/01/11 01:41:51;;;;;;;;;38.00;32.50;;;;;6.79;66.71;102838.28;6242969;22;45726;-82
2022/01/11 01:44:16;;;;;;;;;36.50;32.00;;;;;6.82;66.88;102849.63;6242857;22;45198;-81
2022/01/11 01:46:42;;;;;;;;;30.25;28.50;;;;;6.78;66.41;102847.84;6243077;22;45467;-82
2022/01/11 01:49:10;;;;;;;;;30.25;27.50;;;;;6.77;66.82;102839.94;6242483;22;46117;-81
2022/01/11 01:51:35;;;;;;;;;36.25;27.50;;;;;6.77;66.40;102850.41;6242735;22;45698;-87
2022/01/11 01:54:01;;;;;;;;;37.00;30.00;;;;;6.74;66.54;102862.56;6215507;22;45227;-87
2022/01/11 01:56:27;;;;;;;;;36.25;29.75;;;;;6.73;66.33;102857.31;6214852;22;46490;-85
2022/01/11 01:58:53;;;;;;;;;38.75;28.00;;;;;6.72;67.05;102853.81;6242671;22;46189;-81
2022/01/11 02:01:19;;;;;;;;;31.75;29.25;;;;;6.73;66.49;102860.81;6242480;22;45274;-81
2022/01/11 02:03:45;;;;;;;;;30.75;27.00;;;;;6.75;66.77;102866.97;6242999;22;45287;-84
2022/01/11 02:06:16;;;;;;;;;36.25;29.50;;;;;6.69;66.05;102863.38;6242821;22;45256;-85
2022/01/11 02:08:44;;;;;;;;;28.25;27.00;;;;;6.66;66.13;102869.41;6242864;22;46088;-83
2022/01/11 02:11:10;;;;;;;;;29.75;26.00;;;;;6.63;66.38;102867.63;6242346;22;45321;-85
2022/01/11 02:13:37;;;;;;;;;37.75;30.50;;;;;6.64;66.50;102866.75;6242958;22;45349;-85
2022/01/11 02:16:04;;;;;;;;;34.25;25.00;;;;;6.63;66.08;102871.97;6242276;22;45443;-81
2022/01/11 02:18:30;;;;;;;;;37.50;27.25;;;;;6.59;66.39;102871.00;6242345;22;45117;-81
2022/01/11 02:20:58;;;;;;;;;29.00;24.75;;;;;6.55;65.82;102884.88;6241778;22;45236;-81
2022/01/11 02:23:25;;;;;;;;;38.50;26.75;;;;;6.48;65.79;102877.78;6215367;22;45184;-80
2022/01/11 02:25:51;;;;;;;;;26.00;24.50;;;;;6.43;66.32;102875.09;6242173;22;45312;-80
2022/01/11 02:28:19;;;;;;;;;26.25;23.00;;;;;6.45;66.08;102881.22;6242357;22;46566;-80
2022/01/11 02:30:45;;;;;;;;;24.00;19.00;;;;;6.44;66.31;102875.97;6242318;22;45758;-80
2022/01/11 02:33:32;;;;;;;;;30.00;26.00;;;;;6.42;65.98;102881.16;6242775;22;45172;-80
2022/01/11 02:35:58;;;;;;;;;34.25;27.00;;;;;6.41;66.36;102875.06;6242466;22;45617;-81
2022/01/11 02:38:23;;;;;;;;;27.00;24.50;;;;;6.44;66.19;102882.09;6242159;22;45221;-82
2022/01/11 02:40:48;;;;;;;;;24.50;24.50;;;;;6.41;65.95;102875.06;6242611;22;45165;-85
2022/01/11 02:43:14;;;;;;;;;33.00;25.00;;;;;6.39;66.01;102874.16;6242820;22;45514;-84
2022/01/11 02:45:39;;;;;;;;;26.50;24.25;;;;;6.37;66.27;102875.84;6242150;22;45466;-84
2022/01/11 02:48:05;;;;;;;;;26.25;21.25;;;;;6.40;66.40;102877.63;6214670;22;48097;-84
2022/01/11 02:50:31;;;;;;;;;27.75;25.50;;;;;6.39;66.48;102888.94;6214959;22;45729;-85
2022/01/11 02:52:56;;;;;;;;;36.75;26.50;;;;;6.38;65.95;102887.16;6242663;22;45273;-84
2022/01/11 02:55:21;;;;;;;;;27.25;23.00;;;;;6.34;66.65;102886.25;6214784;22;46892;-83
2022/01/11 02:57:47;;;;;;;;;25.00;23.75;;;;;6.37;66.27;102888.03;6242264;22;46200;-83
2022/01/11 03:00:20;;;;;;;;;24.50;21.75;;;;;6.35;65.89;102881.88;6241954;22;45200;-84
2022/01/11 03:02:47;;;;;;;;;24.75;22.00;;;;;6.36;66.84;102881.03;6242073;22;45360;-83
2022/01/11 03:05:13;;;;;;;;;31.00;23.25;;;;;6.37;66.46;102882.81;6242186;22;45392;-85
2022/01/11 03:07:41;;;;;;;;;22.50;20.25;;;;;6.37;66.16;102886.28;6214072;22;47201;-86
2022/01/11 03:12:56;;;;;;;;;23.25;19.25;;;;;6.35;66.00;102881.88;6242356;22;45286;-86
2022/01/11 03:15:21;;;;;;;;;27.25;21.00;;;;;6.31;66.11;102880.94;6241521;22;45286;-85
2022/01/11 03:17:47;;;;;;;;;26.75;21.50;;;;;6.36;66.21;102894.09;6242107;22;46326;-85
2022/01/11 03:20:12;;;;;;;;;18.50;17.50;;;;;6.37;66.23;102893.25;6242029;22;45310;-86
2022/01/11 03:22:38;;;;;;;;;21.75;17.50;;;;;6.37;66.57;102898.50;6242134;22;45283;-85
2022/01/11 03:25:05;;;;;;;;;20.50;17.00;;;;;6.37;66.08;102906.31;6242146;22;45274;-84
2022/01/11 03:27:31;;;;;;;;;21.50;19.00;;;;;6.38;66.41;102908.97;6241489;22;45356;-84
2022/01/11 03:29:56;;;;;;;;;26.50;21.50;;;;;6.39;66.42;102912.47;6241602;22;45221;-84
2022/01/11 03:32:22;;;;;;;;;26.00;21.25;;;;;6.39;66.72;102907.22;6214322;22;45220;-85
2022/01/11 03:34:47;;;;;;;;;25.75;17.75;;;;;6.36;66.27;102899.31;6241771;22;45242;-84
2022/01/11 03:37:16;;;;;;;;;27.50;21.75;;;;;6.39;66.51;102894.19;6241648;22;46234;-83
2022/01/11 03:39:42;;;;;;;;;32.25;26.50;;;;;6.39;66.57;102897.66;6241654;22;45950;-86
2022/01/11 03:42:07;;;;;;;;;24.00;20.00;;;;;6.42;66.26;102899.44;6241893;22;45295;-85
2022/01/11 03:44:32;;;;;;;;;27.75;20.00;;;;;6.43;66.40;102909.03;6241491;22;45432;-84
2022/01/11 03:47:00;;;;;;;;;26.75;20.00;;;;;6.45;66.43;102917.78;6241810;22;45309;-85
2022/01/11 03:49:25;;;;;;;;;25.00;17.00;;;;;6.46;66.45;102921.28;6241734;22;45723;-85
2022/01/11 03:51:51;;;;;;;;;29.50;23.50;;;;;6.46;66.29;102918.69;6242011;22;45109;-86
2022/01/11 03:54:24;;;;;;;;;31.00;23.25;;;;;6.48;66.43;102924.81;6241996;22;45068;-90
2022/01/11 03:56:50;;;;;;;;;26.25;20.75;;;;;6.48;66.00;102925.69;6242133;22;46273;-91
2022/01/11 03:59:15;;;;;;;;;25.00;23.00;;;;;6.45;65.95;102925.63;6241720;22;45167;-92
2022/01/11 04:01:41;;;;;;;;;26.00;21.00;;;;;6.43;65.88;102921.22;6241519;22;45214;-87
2022/01/11 04:04:09;;;;;;;;;29.25;22.50;;;;;6.42;65.89;102925.56;6214328;22;45685;-87
2022/01/11 04:06:35;;;;;;;;;26.50;22.00;;;;;6.39;66.05;102918.56;6241259;22;45537;-87
2022/01/11 04:09:01;;;;;;;;;28.50;21.25;;;;;6.38;65.87;102914.19;6241606;22;45498;-87
2022/01/11 04:11:26;;;;;;;;;33.50;24.75;;;;;6.41;65.98;102921.19;6241901;22;45409;-88
2022/01/11 04:13:51;;;;;;;;;26.25;22.00;;;;;6.40;65.71;102916.81;6241814;22;45264;-86
2022/01/11 04:16:17;;;;;;;;;31.00;23.75;;;;;6.38;66.02;102910.69;6241313;22;45408;-87
2022/01/11 04:18:42;;;;;;;;;28.50;24.75;;;;;6.36;65.87;102909.78;6241575;22;45301;-85
2022/01/11 04:21:08;;;;;;;;;29.75;26.00;;;;;6.39;66.15;102902.00;6214263;22;45420;-90
2022/01/11 04:23:34;;;;;;;;;29.25;24.75;;;;;6.36;65.75;102912.38;6241602;22;45300;-82
2022/01/11 04:26:00;;;;;;;;;29.00;24.50;;;;;6.35;65.49;102927.19;6241157;22;45578;-82
2022/01/11 04:28:27;;;;;;;;;25.25;23.25;;;;;6.31;65.51;102920.13;6241595;22;45182;-83
2022/01/11 04:30:58;;;;;;;;;25.25;23.25;;;;;6.30;65.53;102920.97;6241546;22;45107;-82
2022/01/11 04:33:27;;;;;;;;;29.25;26.50;;;;;6.33;65.74;102925.38;6241872;22;45287;-82
2022/01/11 04:35:54;;;;;;;;;26.00;25.25;;;;;6.30;65.82;102914.03;6241411;22;45255;-83
2022/01/11 04:38:24;;;;;;;;;29.00;25.75;;;;;6.29;65.04;102908.78;6241818;22;45400;-83
2022/01/11 04:40:51;;;;;;;;;31.00;27.00;;;;;6.29;65.34;102914.88;6214126;22;45155;-83
2022/01/11 04:43:16;;;;;;;;;32.50;31.25;;;;;6.28;65.41;102918.34;6214045;22;46218;-83
2022/01/11 04:45:42;;;;;;;;;31.75;29.00;;;;;6.26;65.25;102912.22;6243173;22;45240;-82
2022/01/11 04:48:08;;;;;;;;;32.25;27.50;;;;;6.29;65.72;102933.19;6243657;22;45119;-81
2022/01/11 04:50:34;;;;;;;;;36.75;32.25;;;;;6.25;65.29;102938.28;6243486;22;45486;-84
2022/01/11 04:53:00;;;;;;;;;34.00;28.50;;;;;6.26;65.30;102934.81;6243525;22;45369;-81
2022/01/11 04:55:26;;;;;;;;;35.25;27.50;;;;;6.21;65.52;102932.13;6243178;22;45433;-82
2022/01/11 04:57:53;;;;;;;;;36.50;29.75;;;;;6.18;65.25;102930.31;6242938;22;45353;-84
2022/01/11 05:00:21;;;;;;;;;40.75;33.50;;;;;6.18;65.54;102929.44;6215981;22;45320;-86
2022/01/11 05:02:46;;;;;;;;;31.25;27.00;;;;;6.17;65.30;102939.00;6243041;22;45303;-84
2022/01/11 05:05:12;;;;;;;;;30.75;25.50;;;;;6.17;65.20;102944.22;6243319;22;45182;-84
2022/01/11 05:07:38;;;;;;;;;29.00;24.25;;;;;6.12;65.09;102945.00;6243142;22;45300;-83
2022/01/11 05:10:04;;;;;;;;;32.00;26.25;;;;;6.13;65.58;102941.50;6243098;22;45204;-81
2022/01/11 05:12:31;;;;;;;;;36.00;30.50;;;;;6.13;65.25;102954.56;6242902;22;45355;-81
2022/01/11 05:14:56;;;;;;;;;31.50;24.00;;;;;6.06;65.27;102938.75;6242995;22;45370;-81
2022/01/11 05:17:21;;;;;;;;;39.00;31.00;;;;;6.10;65.65;102946.69;6215994;22;45243;-81
2022/01/11 05:19:47;;;;;;;;;37.75;28.25;;;;;6.08;65.49;102942.31;6243367;22;45484;-81
2022/01/11 05:22:12;;;;;;;;;40.50;32.25;;;;;6.12;65.45;102950.22;6242695;22;45484;-82
2022/01/11 05:24:38;;;;;;;;;39.50;29.75;;;;;6.11;65.15;102938.88;6243127;22;46001;-81
2022/01/11 05:27:03;;;;;;;;;34.50;30.00;;;;;6.14;65.45;102952.00;6242796;22;45352;-81
2022/01/11 05:29:31;;;;;;;;;38.00;29.50;;;;;6.08;64.69;102952.75;6242778;22;45474;-81
2022/01/11 05:31:58;;;;;;;;;38.75;30.50;;;;;6.06;64.89;102957.03;6243059;22;45133;-88
2022/01/11 05:34:23;;;;;;;;;33.25;28.25;;;;;6.04;65.27;102950.91;6242955;22;45448;-88
2022/01/11 05:36:49;;;;;;;;;39.50;29.50;;;;;6.06;65.39;102956.13;6215262;22;45499;-88
2022/01/11 05:39:14;;;;;;;;;30.25;26.25;;;;;6.06;65.06;102957.03;6242878;22;45246;-88
2022/01/11 05:41:40;;;;;;;;;31.00;27.00;;;;;6.06;64.98;102961.38;6215060;22;46216;-88
2022/01/11 05:44:05;;;;;;;;;36.50;30.75;;;;;6.06;65.07;102975.31;6242822;22;45341;-88
2022/01/11 05:46:31;;;;;;;;;30.25;23.00;;;;;6.04;65.21;102982.22;6242702;22;45266;-89
2022/01/11 05:48:56;;;;;;;;;35.00;28.75;;;;;6.02;64.99;102976.09;6216149;22;45181;-90
2022/01/11 05:51:24;;;;;;;;;37.25;31.00;;;;;6.06;64.78;102977.91;6243217;22;45379;-92
2022/01/11 05:53:49;;;;;;;;;44.00;33.50;;;;;6.02;65.02;102975.22;6243314;22;45243;-92
2022/01/11 05:56:14;;;;;;;;;34.75;28.75;;;;;6.01;64.92;102971.72;6215793;22;45209;-89
2022/01/11 05:58:40;;;;;;;;;38.75;32.50;;;;;6.01;64.74;102989.09;6241188;22;45167;-90
2022/01/11 06:01:05;;;;;;;;;32.25;30.50;;;;;6.01;64.90;102987.38;6214864;22;46995;-94
2022/01/11 06:03:30;;;;;;;;;33.00;30.50;;;;;6.00;65.00;102982.97;6240307;22;47780;-79
2022/01/11 06:05:56;;;;;;;;;38.00;32.25;;;;;5.97;65.14;102978.56;6242603;22;45166;-84
2022/01/11 06:08:21;;;;;;;;;41.00;31.25;;;;;5.97;64.86;102993.38;6242595;22;45217;-84
2022/01/11 06:10:47;;;;;;;;;38.50;33.75;;;;;5.93;64.29;102994.13;6242782;22;45168;-86
2022/01/11 06:13:13;;;;;;;;;41.75;34.25;;;;;5.84;64.61;103011.38;6242506;22;46309;-85
2022/01/11 06:15:38;;;;;;;;;40.50;34.25;;;;;5.82;64.56;103012.16;6214819;22;45228;-85
2022/01/11 06:18:05;;;;;;;;;38.00;31.00;;;;;5.83;64.68;103016.53;6242666;22;45172;-86
2022/01/11 06:20:31;;;;;;;;;38.50;32.50;;;;;5.81;64.21;103019.13;6215163;22;46976;-86
2022/01/11 06:22:56;;;;;;;;;42.50;32.75;;;;;5.78;64.74;103019.03;6242618;22;46295;-84
2022/01/11 06:25:22;;;;;;;;;37.00;33.25;;;;;5.78;64.99;103008.59;6242296;22;45223;-84
2022/01/11 06:27:48;;;;;;;;;40.50;32.25;;;;;5.81;65.07;103016.50;6242509;22;45269;-81
2022/01/11 06:30:15;;;;;;;;;41.25;34.75;;;;;5.81;64.66;103019.13;6241960;22;45263;-84
2022/01/11 06:32:43;;;;;;;;;44.00;36.00;;;;;5.83;65.14;103019.13;6214533;22;47429;-83
2022/01/11 06:35:10;;;;;;;;;46.25;34.00;;;;;5.81;64.75;103015.63;6242311;22;45665;-83
2022/01/11 06:37:35;;;;;;;;;46.00;36.00;;;;;5.83;64.93;103020.03;6242337;22;45295;-83
2022/01/11 06:40:03;;;;;;;;;41.25;35.00;;;;;5.82;65.61;103020.88;6214602;22;46185;-84
2022/01/11 06:42:29;;;;;;;;;38.50;34.00;;;;;5.82;65.02;103014.78;6242088;22;45654;-88
2022/01/11 06:44:54;;;;;;;;;45.50;36.00;;;;;5.85;64.85;103030.53;6242230;22;45711;-89
2022/01/11 06:47:20;;;;;;;;;44.25;35.25;;;;;5.82;64.78;103028.72;6242762;22;45217;-85
2022/01/11 06:49:45;;;;;;;;;30.50;21.25;;;;;5.79;65.03;103031.25;6242458;22;45346;-85
2022/01/11 06:52:11;;;;;;;;;43.50;35.50;;;;;5.81;64.38;103045.22;6242427;22;45292;-84
2022/01/11 06:54:36;;;;;;;;;43.50;34.00;;;;;5.80;64.80;103038.22;6242153;22;45092;-83
2022/01/11 06:57:02;;;;;;;;;38.25;33.75;;;;;5.80;65.02;103026.91;6242552;22;45214;-85
2022/01/11 06:59:27;;;;;;;;;39.50;35.25;;;;;5.82;65.21;103035.66;6241984;22;45242;-81
2022/01/11 07:01:53;;;;;;;;;41.75;33.75;;;;;5.81;64.73;103031.28;6242018;22;45176;-83
2022/01/11 07:04:18;;;;;;;;;46.25;35.25;;;;;5.83;64.84;103038.28;6242265;22;45143;-81
2022/01/11 07:06:44;;;;;;;;;47.25;34.25;;;;;5.81;64.50;103020.84;6242286;22;45386;-80
2022/01/11 07:09:09;;;;;;;;;47.50;36.50;;;;;5.81;64.39;103026.06;6241248;22;45180;-80
2022/01/11 07:11:34;;;;;;;;;44.00;36.50;;;;;5.77;64.11;103038.16;6241657;22;45474;-80
2022/01/11 07:14:03;;;;;;;;;36.25;33.00;;;;;5.78;64.58;103045.13;6240300;22;45213;-82
2022/01/11 07:16:29;;;;;;;;;46.00;34.50;;;;;5.71;64.60;103032.78;6240216;22;45301;-80
2022/01/11 07:18:54;;;;;;;;;41.00;35.75;;;;;5.72;65.20;103035.44;6241415;22;46150;-80
2022/01/11 07:21:20;;;;;;;;;39.50;31.50;;;;;5.74;64.76;103038.06;6240282;22;46206;-80
2022/01/11 07:23:45;;;;;;;;;43.00;37.00;;;;;5.69;65.15;103037.97;6240236;22;45227;-80
2022/01/11 07:26:10;;;;;;;;;44.75;35.00;;;;;5.69;64.49;103039.69;6239189;22;45599;-81
2022/01/11 07:28:36;;;;;;;;;47.00;34.75;;;;;5.68;64.84;103035.34;6240695;22;45461;-80
2022/01/11 07:31:02;;;;;;;;;38.50;34.50;;;;;5.69;64.92;103042.28;6212465;22;45871;-80
2022/01/11 07:33:27;;;;;;;;;44.00;36.25;;;;;5.70;64.69;103059.72;6240506;22;45171;-80
2022/01/11 07:35:53;;;;;;;;;48.50;37.50;;;;;5.63;63.90;103056.94;6240647;22;45210;-80
2022/01/11 07:38:18;;;;;;;;;43.00;32.25;;;;;5.62;65.17;103069.97;6240309;22;45225;-80
2022/01/11 07:40:44;;;;;;;;;45.50;37.75;;;;;5.60;64.79;103072.56;6239769;22;45503;-81
2022/01/11 07:43:09;;;;;;;;;47.00;37.25;;;;;5.61;64.53;103074.31;6239624;22;45778;-81
2022/01/11 07:45:34;;;;;;;;;49.75;37.75;;;;;5.62;64.77;103072.56;6240616;22;45337;-81
2022/01/11 07:48:00;;;;;;;;;46.25;37.50;;;;;5.63;64.57;103080.44;6241646;22;45380;-82
2022/01/11 07:50:25;;;;;;;;;40.00;35.00;;;;;5.65;65.13;103085.72;6241247;22;45319;-85
2022/01/11 07:52:51;;;;;;;;;44.00;38.00;;;;;5.67;65.11;103083.13;6241807;22;45239;-78
2022/01/11 07:55:18;;;;;;;;;41.00;36.50;;;;;5.65;65.07;103087.44;6241678;22;45352;-77
2022/01/11 07:57:43;;;;;;;;;54.75;39.50;;;;;5.68;65.12;103095.34;6241667;22;45263;-77
2022/01/11 08:00:09;;;;;;;;;47.25;37.50;;;;;5.65;64.80;103087.44;6213537;22;46987;-78
2022/01/11 08:02:35;;;;;;;;;51.75;40.00;;;;;5.68;64.98;103082.31;6239691;22;45214;-77
2022/01/11 08:05:00;;;;;;;;;37.75;31.75;;;;;5.69;64.96;103079.72;6238763;22;45239;-78
2022/01/11 08:07:26;;;;;;;;;41.25;35.50;;;;;5.71;65.05;103084.97;6211875;22;45394;-78
2022/01/11 08:09:51;;;;;;;;;44.75;36.75;;;;;5.72;64.82;103086.75;6239983;22;45231;-78
2022/01/11 08:12:17;;;;;;;;;45.75;36.50;;;;;5.70;65.31;103083.22;6241273;22;45185;-78
2022/01/11 08:14:42;;;;;;;;;47.00;38.50;;;;;5.70;65.14;103091.94;6240888;22;45585;-78
2022/01/11 08:17:07;;;;;;;;;45.75;38.50;;;;;5.72;64.72;103094.56;6240825;22;45191;-78
2022/01/11 08:19:33;;;;;;;;;43.25;36.25;;;;;5.71;64.74;103096.28;6240998;22;46222;-78
2022/01/11 08:21:58;;;;;;;;;51.25;39.00;;;;;5.69;65.15;103108.44;6242780;22;45255;-78
2022/01/11 08:24:24;;;;;;;;;48.50;38.25;;;;;5.69;64.72;103121.47;6242522;22;45703;-78
2022/01/11 08:26:52;;;;;;;;;50.75;36.25;;;;;5.67;64.93;103123.16;6239867;22;45296;-78
2022/01/11 08:29:19;;;;;;;;;48.75;36.00;;;;;5.71;64.61;103131.94;6241206;22;45377;-78
2022/01/11 08:31:45;;;;;;;;;51.25;38.00;;;;;5.71;64.55;103124.09;6242834;22;45292;-78
2022/01/11 08:34:14;;;;;;;;;52.75;39.75;;;;;5.70;64.68;103122.38;6242492;22;45247;-78
2022/01/11 08:39:05;;;;;;;;;50.25;39.25;;;;;5.70;64.88;103128.47;6235554;22;74277;-78
2022/01/11 08:41:30;;;;;;;;;49.75;35.25;;;;;5.69;65.07;103120.59;6242263;22;45313;-78
2022/01/11 08:43:55;;;;;;;;;44.25;35.50;;;;;5.71;64.67;103127.63;6242566;22;45379;-78
2022/01/11 08:46:21;;;;;;;;;42.00;35.25;;;;;5.73;64.65;103127.63;6242429;22;45286;-78
2022/01/11 08:48:46;;;;;;;;;43.25;36.00;;;;;5.72;64.69;103118.94;6242716;22;45350;-78
2022/01/11 08:51:11;;;;;;;;;40.25;36.00;;;;;5.74;64.77;103122.47;6242455;22;45332;-78
2022/01/11 08:53:37;;;;;;;;;46.50;37.00;;;;;5.74;64.85;103117.25;6242780;22;45354;-78
2022/01/11 08:56:05;;;;;;;;;52.75;38.75;;;;;5.79;64.87;103121.72;6242171;22;45389;-78
2022/01/11 08:58:30;;;;;;;;;51.25;38.00;;;;;5.79;65.25;103119.97;6242444;22;45263;-77
2022/01/11 09:00:56;;;;;;;;;22.00;13.75;;;;;5.80;64.85;103137.38;6241768;22;45310;-77
2022/01/11 09:03:23;;;;;;;;;42.00;36.75;;;;;5.78;64.80;103118.22;6242343;22;45096;-77
2022/01/11 09:05:49;;;;;;;;;46.75;34.75;;;;;5.81;64.81;103122.63;6241949;22;45273;-77
2022/01/11 09:08:14;;;;;;;;;38.25;35.50;;;;;5.80;64.65;103126.94;6214857;22;47380;-77
2022/01/11 09:10:39;;;;;;;;;41.75;35.25;;;;;5.83;64.73;103140.09;6242599;22;45388;-77
2022/01/11 09:13:05;;;;;;;;;46.75;37.00;;;;;5.88;64.77;103147.19;6241995;22;45359;-77
2022/01/11 09:15:32;;;;;;;;;51.25;37.50;;;;;5.82;64.83;103140.97;6240509;22;45641;-77
2022/01/11 09:17:58;;;;;;;;;44.50;36.75;;;;;5.82;64.54;103142.66;6241720;22;45418;-77
2022/01/11 09:20:23;;;;;;;;;40.25;36.25;;;;;5.82;65.19;103150.50;6242101;22;45396;-77
2022/01/11 09:22:49;;;;;;;;;52.25;37.50;;;;;5.83;64.43;103141.81;6242689;22;45361;-77
2022/01/11 09:25:15;;;;;;;;;54.00;38.25;;;;;5.80;64.34;103137.38;6242272;22;45914;-77
2022/01/11 09:27:41;;;;;;;;;53.00;37.25;;;;;5.80;64.26;103145.22;6241666;22;45626;-77
2022/01/11 09:30:10;;;;;;;;;49.25;37.25;;;;;5.74;64.01;103143.34;6239917;22;45494;-77
2022/01/11 09:32:37;;;;;;;;;52.75;38.75;;;;;5.62;64.49;103148.25;6241423;22;45340;-76
2022/01/11 09:35:04;;;;;;;;;45.75;38.00;;;;;5.63;64.82;103169.16;6214333;22;46352;-76
2022/01/11 09:37:30;;;;;;;;;50.25;38.25;;;;;5.65;64.69;103150.06;6240937;22;45358;-76
2022/01/11 09:39:56;;;;;;;;;44.25;34.50;;;;;5.65;64.79;103171.81;6214808;22;45350;-76
2022/01/11 09:42:23;;;;;;;;;51.50;40.75;;;;;5.67;64.87;103169.25;6241166;22;45225;-76
2022/01/11 09:44:48;;;;;;;;;50.25;39.25;;;;;5.71;65.05;103173.69;6214235;22;45869;-77
2022/01/11 09:47:14;;;;;;;;;50.25;37.00;;;;;5.76;64.99;103169.47;6241542;22;46153;-76
2022/01/11 09:49:41;;;;;;;;;53.00;38.75;;;;;5.78;64.66;103175.63;6240705;22;45593;-76
2022/01/11 09:52:07;;;;;;;;;54.00;42.75;;;;;5.82;64.88;103176.59;6240411;22;45373;-76
2022/01/11 09:54:38;;;;;;;;;60.75;45.75;;;;;5.85;64.55;103181.91;6240235;22;45235;-76
2022/01/11 09:57:04;;;;;;;;;54.75;43.50;;;;;5.87;64.96;103182.84;6239805;22;45591;-76
2022/01/11 09:59:31;;;;;;;;;52.25;40.50;;;;;5.87;64.81;103177.63;6238943;22;45760;-76
2022/01/11 10:01:57;;;;;;;;;52.25;39.25;;;;;5.86;64.57;103183.66;6241766;22;45248;-76
2022/01/11 10:04:32;;;;;;;;;57.00;39.75;;;;;5.87;64.57;103180.22;6242036;22;45456;-76
2022/01/11 10:07:00;;;;;;;;;52.00;37.50;;;;;5.83;64.35;103180.97;6241739;22;46387;-76
2022/01/11 10:09:28;;;;;;;;;51.50;38.00;;;;;5.88;64.58;103181.97;6242102;22;45105;-76
2022/01/11 10:11:56;;;;;;;;;53.50;41.00;;;;;5.91;64.60;103191.63;6240630;22;45232;-76
2022/01/11 10:14:33;;;;;;;;;55.00;41.25;;;;;5.93;64.80;103190.81;6241091;22;45389;-76
2022/01/11 10:17:18;;;;;;;;;51.50;38.00;;;;;5.93;64.25;103190.81;6241261;22;45338;-76
2022/01/11 10:19:58;;;;;;;;;49.50;40.50;;;;;5.93;64.33;103192.53;6241121;22;45365;-76
2022/01/11 10:22:24;;;;;;;;;51.50;40.50;;;;;5.90;64.26;103185.50;6241989;22;45213;-76
2022/01/11 10:24:54;;;;;;;;;48.25;36.75;;;;;5.92;64.39;103185.56;6241418;22;45308;-76
2022/01/11 10:27:30;;;;;;;;;49.50;40.25;;;;;5.97;64.66;103192.66;6241481;22;46225;-76
2022/01/11 10:29:57;;;;;;;;;52.50;38.00;;;;;6.00;64.53;103191.00;6241423;22;45216;-76
2022/01/11 10:32:30;;;;;;;;;58.00;41.75;;;;;6.03;64.54;103201.50;6241941;22;45161;-76
2022/01/11 10:35:07;;;;;;;;;50.75;40.25;;;;;6.08;64.82;103194.69;6241586;22;45448;-76
2022/01/11 10:37:34;;;;;;;;;53.75;41.50;;;;;6.12;64.47;103203.50;6241360;22;45684;-76
2022/01/11 10:40:15;;;;;;;;;56.75;40.25;;;;;6.13;64.77;103190.47;6241786;22;45264;-76
2022/01/11 10:43:00;;;;;;;;;51.50;40.25;;;;;6.15;64.43;103201.84;6241265;22;45294;-76
2022/01/11 10:45:35;;;;;;;;;50.50;36.75;;;;;6.19;64.66;103206.31;6241241;22;45597;-76
2022/01/11 10:48:05;;;;;;;;;50.25;38.25;;;;;6.19;64.41;103208.94;6213881;22;47776;-76
2022/01/11 10:50:42;;;;;;;;;48.00;38.00;;;;;6.18;64.77;103194.09;6241496;22;45368;-76
2022/01/11 10:53:12;;;;;;;;;46.50;38.00;;;;;6.24;64.41;103201.22;6241198;22;45392;-76
2022/01/11 10:55:38;;;;;;;;;48.50;37.00;;;;;6.24;64.65;103196.00;6240355;22;45389;-76
2022/01/11 10:58:07;;;;;;;;;56.75;41.25;;;;;6.26;64.17;103194.28;6241957;22;46499;-76
2022/01/11 11:00:37;;;;;;;;;57.50;45.00;;;;;6.32;64.55;103197.91;6240721;22;46036;-76
2022/01/11 11:03:15;;;;;;;;;58.25;41.50;;;;;6.35;64.50;103204.06;6240916;22;45302;-76
2022/01/11 11:05:52;;;;;;;;;53.25;42.50;;;;;6.38;64.59;103204.16;6241283;22;45555;-76
2022/01/11 11:08:20;;;;;;;;;57.25;41.25;;;;;6.41;64.41;103199.00;6241395;22;45254;-75
2022/01/11 11:11:00;;;;;;;;;56.75;42.25;;;;;6.44;64.05;103206.06;6241208;22;45237;-76
2022/01/11 11:13:26;;;;;;;;;53.25;41.00;;;;;6.45;64.42;103207.78;6241101;22;45274;-76
2022/01/11 11:15:54;;;;;;;;;55.50;41.25;;;;;6.48;64.01;103212.22;6241419;22;45436;-76
2022/01/11 11:18:24;;;;;;;;;55.00;39.50;;;;;6.42;64.47;103205.09;6241229;22;45193;-76
2022/01/11 11:20:49;;;;;;;;;50.25;38.25;;;;;6.49;64.00;103208.78;6241566;22;45499;-76
2022/01/11 11:23:17;;;;;;;;;59.75;44.50;;;;;6.44;63.78;103202.53;6241548;22;45588;-76
2022/01/11 11:25:42;;;;;;;;;51.25;40.00;;;;;6.43;64.22;103204.28;6240808;22;45446;-76